Time;durP1;ratioP1;P1;durP2;ratioP2;P2;SDS_P1;SDS_P2;PMS_P1;PMS_P2;Temp;Humidity;BMP_temperature;BMP_pressure;BME280_temperature;BME280_humidity;BME280_pressure;Samples;Min_cycle;Max_cycle;Signal;HPM_P1;HPM_P2
2024/03/25 00:00:45;;;;;;;0.10;0.10;;;;;;;7.91;59.51;98946.09;4443898;32;34257;-82
2024/03/25 00:03:13;;;;;;;0.32;0.32;;;;;;;7.96;59.25;98949.34;4450651;32;34606;-82
2024/03/25 00:05:40;;;;;;;0.30;0.30;;;;;;;8.01;59.15;98946.50;4457293;32;32485;-82
2024/03/25 00:08:07;;;;;;;1.58;0.93;;;;;;;7.98;59.25;98945.81;4455446;32;33423;-82
2024/03/25 00:10:34;;;;;;;0.55;0.55;;;;;;;7.82;59.64;98941.25;4431062;32;35188;-81
2024/03/25 00:13:00;;;;;;;0.55;0.47;;;;;;;7.76;60.10;98933.66;4456015;32;33532;-82
2024/03/25 00:15:27;;;;;;;0.17;0.17;;;;;;;7.66;59.85;98929.75;4456256;32;33205;-81
2024/03/25 00:17:54;;;;;;;0.55;0.55;;;;;;;7.59;59.73;98936.19;4457596;32;33834;-82
2024/03/25 00:20:21;;;;;;;1.45;1.35;;;;;;;7.67;59.25;98934.94;4457139;32;34611;-81
2024/03/25 00:22:47;;;;;;;1.65;1.55;;;;;;;7.48;59.77;98941.09;4457111;32;32624;-82
2024/03/25 00:25:16;;;;;;;0.75;0.75;;;;;;;7.52;59.68;98938.25;4454500;32;35418;-82
2024/03/25 00:27:43;;;;;;;0.35;0.35;;;;;;;7.43;60.27;98936.88;4469097;32;34035;-82
2024/03/25 00:30:10;;;;;;;2.03;1.40;;;;;;;7.39;60.01;98926.59;4456704;32;34535;-82
2024/03/25 00:32:37;;;;;;;0.03;0.03;;;;;;;7.55;59.73;98932.88;4444554;32;35364;-82
2024/03/25 00:35:04;;;;;;;0.20;0.20;;;;;;;7.41;60.01;98928.25;4456580;32;34710;-82
2024/03/25 00:37:30;;;;;;;0.65;0.65;;;;;;;7.41;59.93;98922.97;4456627;32;31960;-82
2024/03/25 00:39:57;;;;;;;0.00;0.00;;;;;;;7.37;59.71;98931.91;4443861;32;34923;-82
2024/03/25 00:42:24;;;;;;;0.35;0.35;;;;;;;7.31;59.73;98926.06;4456513;32;34518;-83
2024/03/25 00:44:50;;;;;;;0.05;0.05;;;;;;;7.27;59.37;98928.00;4455676;32;32794;-82
2024/03/25 00:47:17;;;;;;;0.55;0.55;;;;;;;6.98;60.46;98918.78;4469734;32;33099;-82
2024/03/25 00:49:44;;;;;;;0.00;0.00;;;;;;;7.00;59.58;98923.94;4452277;32;32236;-82
2024/03/25 00:52:10;;;;;;;5.93;1.08;;;;;;;6.60;61.21;98920.41;4444413;32;32859;-82
2024/03/25 00:54:38;;;;;;;0.05;0.05;;;;;;;6.86;60.52;98922.75;4433330;32;35455;-81
2024/03/25 00:57:05;;;;;;;0.00;0.00;;;;;;;6.91;60.21;98920.78;4443720;32;32588;-82
2024/03/25 00:59:31;;;;;;;0.13;0.13;;;;;;;6.68;60.75;98913.88;4456822;32;33889;-81
2024/03/25 01:01:58;;;;;;;0.47;0.47;;;;;;;6.84;60.52;98914.13;4430841;32;34724;-81
2024/03/25 01:04:25;;;;;;;0.52;0.52;;;;;;;6.78;60.50;98919.59;4469536;32;33933;-82
2024/03/25 01:06:54;;;;;;;0.20;0.20;;;;;;;6.76;60.68;98917.97;4456416;32;32695;-81
2024/03/25 01:09:38;;;;;;;0.00;0.00;;;;;;;6.61;60.50;98919.47;4447625;32;33037;-81
2024/03/25 01:12:05;;;;;;;0.43;0.43;;;;;;;6.59;60.84;98918.66;4456343;32;33818;-81
2024/03/25 01:14:32;;;;;;;0.37;0.37;;;;;;;6.56;60.90;98913.56;4455671;32;34030;-81
2024/03/25 01:16:59;;;;;;;0.03;0.03;;;;;;;6.58;60.55;98916.97;4450377;32;32271;-81
2024/03/25 01:19:25;;;;;;;0.00;0.00;;;;;;;6.55;60.79;98911.84;4456636;32;33925;-80
2024/03/25 01:21:52;;;;;;;0.73;0.73;;;;;;;6.45;61.51;98910.50;4456612;32;33835;-80
2024/03/25 01:24:19;;;;;;;0.70;0.70;;;;;;;6.35;61.36;98915.28;4456290;32;33282;-80
2024/03/25 01:26:46;;;;;;;0.22;0.22;;;;;;;6.28;61.70;98912.06;4469566;32;33928;-80
2024/03/25 01:29:13;;;;;;;0.35;0.35;;;;;;;6.45;61.12;98908.75;4430538;32;33729;-81
2024/03/25 01:31:39;;;;;;;0.00;0.00;;;;;;;6.94;59.36;98909.31;4457097;31;32922;-81
2024/03/25 01:34:06;;;;;;;0.00;0.00;;;;;;;6.96;58.78;98907.47;4457428;32;33685;-82
2024/03/25 01:36:34;;;;;;;0.00;0.00;;;;;;;6.55;59.98;98912.72;4456089;32;33967;-82
2024/03/25 01:39:00;;;;;;;0.00;0.00;;;;;;;6.46;60.30;98912.22;4456660;32;32677;-82
2024/03/25 01:41:28;;;;;;;0.60;0.60;;;;;;;6.47;61.08;98913.94;4458043;32;32891;-82
2024/03/25 01:43:55;;;;;;;0.00;0.00;;;;;;;6.54;60.33;98903.13;4445099;32;34545;-80
2024/03/25 01:46:22;;;;;;;0.32;0.32;;;;;;;6.28;61.52;98903.34;4458195;32;32297;-80
2024/03/25 01:48:50;;;;;;;0.08;0.08;;;;;;;6.22;61.81;98912.31;4457783;32;33430;-80
2024/03/25 01:51:19;;;;;;;0.00;0.00;;;;;;;6.27;61.33;98914.75;4444539;32;32740;-80
2024/03/25 01:53:46;;;;;;;0.10;0.10;;;;;;;6.50;61.02;98913.78;4457163;32;33964;-82
2024/03/25 01:56:14;;;;;;;0.00;0.00;;;;;;;6.19;62.34;98912.44;4445653;32;32575;-82
2024/03/25 01:58:41;;;;;;;0.35;0.30;;;;;;;6.21;62.64;98913.22;4432129;32;32430;-81
2024/03/25 02:01:10;;;;;;;0.05;0.05;;;;;;;6.16;63.50;98909.94;4458249;32;33992;-82
2024/03/25 02:03:37;;;;;;;0.28;0.28;;;;;;;6.24;63.22;98902.63;4445377;32;35071;-81
2024/03/25 02:06:08;;;;;;;0.20;0.20;;;;;;;6.21;62.90;98913.22;4457769;32;32246;-82
2024/03/25 02:08:35;;;;;;;0.00;0.00;;;;;;;6.57;62.37;98910.03;4455605;32;32965;-82
2024/03/25 02:11:02;;;;;;;0.00;0.00;;;;;;;6.57;62.11;98910.03;4445324;32;34739;-82
2024/03/25 02:13:29;;;;;;;0.00;0.00;;;;;;;6.61;62.12;98911.59;4457590;32;32633;-81
2024/03/25 02:15:55;;;;;;;0.73;0.73;;;;;;;6.70;61.64;98911.22;4458253;32;33120;-82
2024/03/25 02:18:23;;;;;;;0.00;0.00;;;;;;;6.77;61.88;98907.41;4470828;32;33446;-81
2024/03/25 02:20:49;;;;;;;0.00;0.00;;;;;;;6.95;61.53;98904.91;4457459;32;33718;-81
2024/03/25 02:23:16;;;;;;;0.20;0.20;;;;;;;6.89;61.88;98906.03;4457616;32;32129;-80
2024/03/25 02:25:43;;;;;;;0.88;0.55;;;;;;;6.98;61.24;98904.75;4457407;32;34650;-80
2024/03/25 02:28:10;;;;;;;0.30;0.30;;;;;;;7.01;61.14;98902.87;4457991;32;34227;-80
2024/03/25 02:30:36;;;;;;;0.00;0.00;;;;;;;6.99;60.72;98896.84;4457371;32;33788;-80
2024/03/25 02:33:04;;;;;;;0.00;0.00;;;;;;;7.05;61.12;98900.97;4470275;32;34404;-80
2024/03/25 02:35:30;;;;;;;0.75;0.65;;;;;;;7.10;60.53;98899.84;4470429;32;33088;-82
2024/03/25 02:37:57;;;;;;;0.08;0.08;;;;;;;7.07;60.80;98904.37;4457565;32;32828;-81
2024/03/25 02:40:26;;;;;;;0.00;0.00;;;;;;;7.03;60.76;98903.69;4445050;32;34092;-81
2024/03/25 02:42:52;;;;;;;3.20;0.32;;;;;;;7.10;60.22;98899.84;4457454;32;33612;-81
2024/03/25 02:45:19;;;;;;;0.37;0.37;;;;;;;7.06;60.42;98902.66;4457642;32;32812;-81
2024/03/25 02:47:46;;;;;;;0.00;0.00;;;;;;;7.10;60.14;98899.00;4457253;32;34747;-81
2024/03/25 02:50:12;;;;;;;0.30;0.28;;;;;;;7.01;60.40;98909.91;4457712;32;32393;-81
2024/03/25 02:52:39;;;;;;;0.30;0.30;;;;;;;7.02;60.30;98906.34;4448969;32;32677;-80
2024/03/25 02:55:06;;;;;;;0.10;0.10;;;;;;;7.15;59.57;98907.53;4457692;32;33776;-80
2024/03/25 02:57:33;;;;;;;0.45;0.45;;;;;;;7.09;59.95;98910.41;4457637;32;32696;-79
2024/03/25 02:59:59;;;;;;;0.00;0.00;;;;;;;7.02;60.01;98906.34;4457533;32;34249;-80
2024/03/25 03:02:26;;;;;;;0.00;0.00;;;;;;;7.10;59.85;98912.13;4455756;31;34638;-79
2024/03/25 03:04:53;;;;;;;2.53;1.02;;;;;;;7.07;nan;98915.72;4457156;32;32975;-79
2024/03/25 03:07:19;;;;;;;0.00;0.00;;;;;;;7.04;60.19;98909.78;4470363;32;33968;-80
2024/03/25 03:09:46;;;;;;;0.00;0.00;;;;;;;7.00;59.95;98913.44;4457509;32;35000;-80
2024/03/25 03:12:13;;;;;;;0.00;0.00;;;;;;;6.87;60.38;98911.34;4460759;32;34035;-80
2024/03/25 03:14:40;;;;;;;0.00;0.00;;;;;;;7.01;60.21;98915.16;4457580;32;31868;-80
2024/03/25 03:17:06;;;;;;;0.30;0.30;;;;;;;7.00;60.77;98902.94;4456895;32;32396;-80
2024/03/25 03:19:33;;;;;;;0.10;0.10;;;;;;;7.00;60.67;98918.69;4457297;32;33243;-80
2024/03/25 03:22:02;;;;;;;0.00;0.00;;;;;;;7.02;60.86;98922.09;4444806;32;34518;-80
2024/03/25 03:24:29;;;;;;;0.00;0.00;;;;;;;6.81;61.56;98919.47;4444355;32;31972;-81
2024/03/25 03:26:56;;;;;;;0.00;0.00;;;;;;;7.01;60.80;98923.03;4457564;32;33561;-81
2024/03/25 03:29:22;;;;;;;0.37;0.37;;;;;;;7.05;61.11;98920.19;4469493;32;34033;-80
2024/03/25 03:31:49;;;;;;;0.00;0.00;;;;;;;7.11;61.02;98921.69;4444300;32;34467;-81
2024/03/25 03:34:16;;;;;;;0.05;0.05;;;;;;;7.08;61.42;98929.72;4456594;32;32201;-81
2024/03/25 03:36:42;;;;;;;0.30;0.30;;;;;;;6.97;61.33;98935.41;4443704;32;32641;-81
2024/03/25 03:39:09;;;;;;;5.22;0.32;;;;;;;7.04;61.51;98934.25;4444514;32;35735;-81
2024/03/25 03:41:36;;;;;;;0.00;0.00;;;;;;;7.24;60.47;98933.37;4458272;32;33252;-81
2024/03/25 03:44:02;;;;;;;0.10;0.05;;;;;;;7.15;60.82;98933.78;4443945;32;32784;-81
2024/03/25 03:46:30;;;;;;;3.25;1.65;;;;;;;6.96;61.84;98943.38;4457199;32;32495;-81
2024/03/25 03:48:56;;;;;;;0.00;0.00;;;;;;;7.07;61.58;98936.72;4457025;32;32311;-81
2024/03/25 03:51:23;;;;;;;0.10;0.10;;;;;;;7.04;61.53;98941.28;4470328;32;34477;-81
2024/03/25 03:53:50;;;;;;;0.00;0.00;;;;;;;7.09;61.79;98944.56;4444380;32;34876;-81
2024/03/25 03:56:16;;;;;;;0.00;0.00;;;;;;;7.22;61.07;98948.34;4457383;32;33926;-81
2024/03/25 03:58:43;;;;;;;0.47;0.47;;;;;;;7.22;61.15;98945.72;4470553;32;34009;-81
2024/03/25 04:01:17;;;;;;;0.00;0.00;;;;;;;7.17;60.94;98942.44;4455311;32;34742;-81
2024/03/25 04:03:44;;;;;;;0.00;0.00;;;;;;;7.09;61.26;98934.06;4443950;32;34195;-81
2024/03/25 04:06:12;;;;;;;0.00;0.00;;;;;;;7.19;61.55;98930.94;4457009;32;33615;-80
2024/03/25 04:08:39;;;;;;;0.00;0.00;;;;;;;7.32;61.54;98933.91;4455359;32;34691;-81
2024/03/25 04:11:07;;;;;;;0.10;0.10;;;;;;;7.28;61.76;98939.34;4456095;32;33193;-81
2024/03/25 04:13:34;;;;;;;0.00;0.00;;;;;;;7.50;61.27;98944.47;4456697;32;33856;-81
2024/03/25 04:16:05;;;;;;;0.20;0.20;;;;;;;7.39;61.90;98943.19;4443592;32;33522;-81
2024/03/25 04:18:33;;;;;;;0.10;0.10;;;;;;;7.64;60.50;98942.09;4456827;32;35668;-80
2024/03/25 04:21:00;;;;;;;0.80;0.80;;;;;;;7.66;60.92;98941.13;4443670;32;32335;-80
2024/03/25 04:23:26;;;;;;;0.00;0.00;;;;;;;7.63;61.09;98937.75;4455337;32;32782;-80
2024/03/25 04:25:55;;;;;;;0.00;0.00;;;;;;;7.44;61.66;98946.47;4457566;32;32954;-81
2024/03/25 04:28:22;;;;;;;0.20;0.20;;;;;;;7.56;61.61;98945.09;4457047;31;33136;-81
2024/03/25 04:30:53;;;;;;;0.00;0.00;;;;;;;7.48;61.70;98956.84;4457203;32;33582;-81
2024/03/25 04:33:20;;;;;;;0.00;0.00;;;;;;;7.63;61.55;98956.16;4443950;32;32558;-81
2024/03/25 04:35:47;;;;;;;0.00;0.00;;;;;;;7.65;61.82;98963.06;4444586;32;32752;-80
2024/03/25 04:38:16;;;;;;;0.37;0.28;;;;;;;7.71;61.86;98961.94;4456506;32;33530;-80
2024/03/25 04:40:44;;;;;;;0.00;0.00;;;;;;;7.61;62.23;98958.88;4437794;32;33980;-80
2024/03/25 04:43:10;;;;;;;0.00;0.00;;;;;;;7.76;61.67;98962.56;4442969;32;32889;-81
2024/03/25 04:45:37;;;;;;;0.15;0.15;;;;;;;7.79;61.43;98965.06;4456768;32;33438;-81
2024/03/25 04:48:04;;;;;;;0.00;0.00;;;;;;;7.74;62.26;98961.78;4456827;32;33644;-81
2024/03/25 04:50:31;;;;;;;0.40;0.40;;;;;;;7.98;61.33;98966.84;4442746;32;32506;-81
2024/03/25 04:52:57;;;;;;;0.20;0.20;;;;;;;7.96;60.87;98975.62;4444094;32;33702;-81
2024/03/25 04:55:25;;;;;;;0.00;0.00;;;;;;;8.01;60.88;98975.44;4469961;32;33598;-80
2024/03/25 04:57:51;;;;;;;0.00;0.00;;;;;;;7.84;61.63;98980.63;4469744;32;33970;-80
2024/03/25 05:00:18;;;;;;;0.52;0.52;;;;;;;7.68;61.94;98986.53;4456772;32;32567;-80
2024/03/25 05:02:45;;;;;;;0.00;0.00;;;;;;;7.81;60.63;98978.97;4455552;32;33647;-81
2024/03/25 05:05:11;;;;;;;0.00;0.00;;;;;;;7.72;61.20;98991.69;4443660;32;32291;-80
2024/03/25 05:07:38;;;;;;;0.00;0.00;;;;;;;8.27;59.45;98990.00;4469477;32;34705;-80
2024/03/25 05:10:05;;;;;;;5.00;1.27;;;;;;;8.11;59.63;98989.84;4455792;32;32344;-81
2024/03/25 05:12:31;;;;;;;0.10;0.10;;;;;;;8.04;59.92;98995.47;4456475;32;31805;-80
2024/03/25 05:14:58;;;;;;;0.10;0.10;;;;;;;8.16;59.73;99000.16;4482211;32;33854;-80
2024/03/25 05:17:25;;;;;;;0.00;0.00;;;;;;;8.25;59.50;98999.72;4443328;32;34841;-82
2024/03/25 05:19:51;;;;;;;0.00;0.00;;;;;;;8.35;59.00;98997.50;4456574;32;32308;-82
2024/03/25 05:22:19;;;;;;;0.10;0.10;;;;;;;8.48;58.80;99003.94;4455145;32;32669;-82
2024/03/25 05:24:46;;;;;;;0.10;0.10;;;;;;;8.21;58.64;99003.41;4443605;32;33864;-82
2024/03/25 05:27:12;;;;;;;0.00;0.00;;;;;;;8.61;57.18;99006.84;4469235;32;33981;-82
2024/03/25 05:29:39;;;;;;;0.00;0.00;;;;;;;8.69;57.07;99013.44;4456058;32;34012;-82
2024/03/25 05:32:06;;;;;;;0.00;0.00;;;;;;;8.65;58.10;99006.62;4443389;32;34477;-80
2024/03/25 05:34:32;;;;;;;0.00;0.00;;;;;;;8.67;57.51;99019.69;4469294;32;34280;-81
2024/03/25 05:36:59;;;;;;;2.30;1.20;;;;;;;8.90;57.04;99022.06;4469295;32;34666;-80
2024/03/25 05:39:25;;;;;;;0.00;0.00;;;;;;;8.90;56.94;99024.69;4443292;32;34521;-81
2024/03/25 05:41:52;;;;;;;0.00;0.00;;;;;;;9.05;56.57;99022.22;4468820;32;33426;-81
2024/03/25 05:44:18;;;;;;;0.00;0.00;;;;;;;8.80;57.69;99026.06;4453898;32;32727;-81
2024/03/25 05:46:45;;;;;;;0.08;0.08;;;;;;;8.62;57.70;99032.22;4468785;32;34098;-81
2024/03/25 05:49:12;;;;;;;0.00;0.00;;;;;;;8.34;59.03;99044.00;4442939;32;32892;-81
2024/03/25 05:51:38;;;;;;;0.10;0.10;;;;;;;8.12;59.46;99045.94;4455656;32;32420;-81
2024/03/25 05:54:05;;;;;;;0.00;0.00;;;;;;;8.31;59.05;99038.91;4455694;32;34653;-81
2024/03/25 05:56:31;;;;;;;0.00;0.00;;;;;;;8.66;58.49;99033.78;4452956;32;34177;-81
2024/03/25 05:58:58;;;;;;;0.10;0.10;;;;;;;8.50;59.01;99032.78;4468384;32;33498;-81
2024/03/25 06:01:26;;;;;;;0.00;0.00;;;;;;;8.69;58.59;99033.66;4442731;32;34179;-81
2024/03/25 06:03:53;;;;;;;0.00;0.00;;;;;;;8.76;58.41;99029.78;4454031;32;33795;-80
2024/03/25 06:06:20;;;;;;;0.00;0.00;;;;;;;8.95;57.71;99025.31;4454517;32;33538;-80
2024/03/25 06:08:46;;;;;;;0.00;0.00;;;;;;;8.69;58.53;99023.97;4468811;32;34525;-80
2024/03/25 06:11:13;;;;;;;0.00;0.00;;;;;;;8.73;58.46;99024.66;4454117;32;33980;-80
2024/03/25 06:13:39;;;;;;;0.00;0.00;;;;;;;9.04;58.11;99025.78;4465872;31;33983;-80
2024/03/25 06:16:06;;;;;;;0.00;0.00;;;;;;;9.36;57.69;99024.19;4456855;32;33658;-82
2024/03/25 06:18:33;;;;;;;0.00;0.00;;;;;;;9.29;57.78;99020.97;4441627;32;34479;-82
2024/03/25 06:21:00;;;;;;;0.03;0.03;;;;;;;9.64;57.25;99020.97;4441941;32;32024;-81
2024/03/25 06:23:28;;;;;;;0.08;0.08;;;;;;;9.66;57.00;99027.84;4453308;32;32753;-80
2024/03/25 06:25:56;;;;;;;0.10;0.10;;;;;;;9.54;56.48;99019.72;4443156;32;35766;-80
2024/03/25 06:28:23;;;;;;;0.05;0.05;;;;;;;9.81;56.07;99020.06;4468323;32;33968;-80
2024/03/25 06:36:22;;;;;;;0.00;0.00;;;;;;;10.04;55.79;99021.47;4458323;32;33930;-81
2024/03/25 06:38:49;;;;;;;0.25;0.25;;;;;;;9.85;55.79;99026.88;4443676;32;33105;-81
2024/03/25 06:41:16;;;;;;;0.20;0.20;;;;;;;10.06;55.99;99025.72;4469490;32;33597;-80
2024/03/25 06:43:43;;;;;;;0.00;0.00;;;;;;;10.11;55.83;99033.37;4469033;32;33068;-81
2024/03/25 06:46:10;;;;;;;0.20;0.00;;;;;;;10.01;55.56;99038.31;4461473;32;32996;-81
2024/03/25 06:48:37;;;;;;;0.00;0.00;;;;;;;10.18;55.44;99040.06;4470738;32;32814;-82
2024/03/25 06:51:05;;;;;;;0.00;0.00;;;;;;;10.67;54.55;99047.94;4471417;31;33320;-82
2024/03/25 06:53:32;;;;;;;1.83;0.80;;;;;;;10.61;53.43;99045.66;4444271;32;34863;-79
2024/03/25 06:55:59;;;;;;;0.00;0.00;;;;;;;10.64;53.49;99053.41;4457265;32;33360;-80
2024/03/25 06:58:27;;;;;;;0.00;0.00;;;;;;;9.89;55.50;99045.09;4458242;32;32971;-79
2024/03/25 07:00:56;;;;;;;0.17;0.17;;;;;;;9.77;56.61;99053.63;4458061;32;33990;-79
2024/03/25 07:03:23;;;;;;;0.08;0.08;;;;;;;10.00;55.77;99053.28;4456495;31;32866;-80
2024/03/25 07:05:52;;;;;;;0.00;0.00;;;;;;;9.77;56.74;99050.16;4470581;32;33923;-79
2024/03/25 07:08:19;;;;;;;0.00;0.00;;;;;;;10.25;55.29;99039.69;4445168;32;33886;-81
2024/03/25 07:10:46;;;;;;;0.00;0.00;;;;;;;10.30;55.21;99049.97;4457311;32;32613;-81
2024/03/25 07:13:13;;;;;;;0.00;0.00;;;;;;;10.29;55.09;99050.91;4429011;32;33021;-81
2024/03/25 07:15:40;;;;;;;0.15;0.10;;;;;;;10.28;55.45;99059.75;4457051;32;32281;-81
2024/03/25 07:18:07;;;;;;;0.10;0.10;;;;;;;10.65;54.53;99060.38;4449727;32;33774;-81
2024/03/25 07:20:34;;;;;;;0.00;0.00;;;;;;;10.36;55.83;99064.63;4470538;32;32742;-81
2024/03/25 07:23:01;;;;;;;0.00;0.00;;;;;;;10.59;53.91;99055.44;4457317;31;32705;-80
2024/03/25 07:25:29;;;;;;;0.10;0.10;;;;;;;10.66;54.67;99067.34;4454297;32;32259;-81
2024/03/25 07:27:56;;;;;;;13.35;0.65;;;;;;;10.86;54.35;99064.44;4457162;32;32712;-80
2024/03/25 07:30:27;;;;;;;0.10;0.10;;;;;;;10.63;54.20;99067.50;4458153;32;33467;-80
2024/03/25 07:32:55;;;;;;;0.08;0.08;;;;;;;10.30;52.54;99065.78;4445361;32;33708;-80
2024/03/25 07:35:22;;;;;;;0.50;0.50;;;;;;;10.60;52.40;99072.97;4446335;31;32466;-80
2024/03/25 07:37:51;;;;;;;0.00;0.00;;;;;;;10.91;51.55;99062.38;4455634;32;32668;-81
2024/03/25 07:40:18;;;;;;;0.00;0.00;;;;;;;10.73;51.93;99063.44;4456324;32;31569;-80
2024/03/25 07:42:45;;;;;;;0.30;0.30;;;;;;;10.79;51.60;99073.66;4444256;32;32342;-81
2024/03/25 07:45:12;;;;;;;0.03;0.03;;;;;;;10.69;51.91;99070.69;4445220;32;35319;-81
2024/03/25 07:47:39;;;;;;;0.00;0.00;;;;;;;10.56;51.29;99076.72;4471374;32;34477;-79
2024/03/25 07:50:06;;;;;;;0.43;0.43;;;;;;;10.45;50.73;99077.31;4458566;32;34114;-79
2024/03/25 07:52:33;;;;;;;0.00;0.00;;;;;;;10.97;50.54;99062.06;4459808;32;32267;-79
2024/03/25 07:55:00;;;;;;;0.00;0.00;;;;;;;10.79;50.50;99078.94;4443651;32;33126;-80
2024/03/25 07:57:26;;;;;;;0.00;0.00;;;;;;;10.75;50.45;99069.47;4470730;32;33682;-79
2024/03/25 07:59:53;;;;;;;0.00;0.00;;;;;;;10.93;50.06;99073.72;4457336;32;33273;-79
2024/03/25 08:02:21;;;;;;;0.05;0.05;;;;;;;11.06;49.97;99076.50;4470190;32;34107;-79
2024/03/25 08:04:48;;;;;;;1.52;0.88;;;;;;;10.78;50.60;99077.25;4470564;31;34345;-79
2024/03/25 08:07:14;;;;;;;0.30;0.30;;;;;;;10.81;50.24;99071.78;4443681;32;33862;-80
2024/03/25 08:09:41;;;;;;;0.00;0.00;;;;;;;10.86;49.87;99074.16;4470148;32;33313;-79
2024/03/25 08:12:08;;;;;;;8.73;0.68;;;;;;;10.58;50.73;99072.19;4469978;32;34271;-79
2024/03/25 08:14:34;;;;;;;0.47;0.32;;;;;;;11.06;49.52;99065.09;4469783;32;33638;-79
2024/03/25 08:17:02;;;;;;;0.00;0.00;;;;;;;11.39;49.64;99052.56;4470435;32;33841;-79
2024/03/25 08:19:31;;;;;;;0.00;0.00;;;;;;;11.45;47.84;99057.50;4457524;32;34082;-79
2024/03/25 08:21:58;;;;;;;0.00;0.00;;;;;;;11.57;48.15;99058.56;4463414;32;32014;-79
2024/03/25 08:24:24;;;;;;;0.00;0.00;;;;;;;11.15;48.39;99052.19;4456903;32;34593;-79
2024/03/25 08:26:51;;;;;;;0.00;0.00;;;;;;;11.53;47.92;99055.25;4457921;32;33779;-79
2024/03/25 08:29:17;;;;;;;0.28;0.28;;;;;;;11.52;48.07;99058.81;4444367;32;32408;-79
2024/03/25 08:31:44;;;;;;;0.05;0.05;;;;;;;11.90;47.46;99052.22;4470137;32;34052;-79
2024/03/25 08:34:11;;;;;;;0.32;0.32;;;;;;;11.60;47.92;99070.75;4457526;32;34905;-79
2024/03/25 08:36:37;;;;;;;2.25;0.30;;;;;;;11.89;46.80;99063.75;4456915;32;34425;-79
2024/03/25 08:39:04;;;;;;;0.00;0.00;;;;;;;12.00;46.74;99059.50;4457511;32;32445;-79
2024/03/25 08:41:32;;;;;;;0.47;0.25;;;;;;;12.07;46.77;99059.97;4454222;32;33624;-79
2024/03/25 08:43:59;;;;;;;0.00;0.00;;;;;;;11.75;47.03;99062.75;4484175;32;33610;-79
2024/03/25 08:46:26;;;;;;;0.00;0.00;;;;;;;11.97;45.68;99070.28;4470563;32;34447;-79
2024/03/25 08:48:53;;;;;;;0.00;0.00;;;;;;;11.92;46.30;99068.88;4457003;32;35252;-79
2024/03/25 08:51:20;;;;;;;0.00;0.00;;;;;;;11.78;46.79;99064.37;4453120;32;33271;-79
2024/03/25 08:53:46;;;;;;;0.00;0.00;;;;;;;11.75;46.73;99060.09;4471753;32;33980;-79
2024/03/25 08:56:13;;;;;;;0.08;0.08;;;;;;;11.64;46.79;99067.84;4470051;32;34299;-79
2024/03/25 08:58:40;;;;;;;0.82;0.45;;;;;;;12.15;46.35;99065.63;4457296;32;32584;-79
2024/03/25 09:01:08;;;;;;;0.00;0.00;;;;;;;12.65;45.56;99060.78;4457029;32;32603;-79
2024/03/25 09:03:35;;;;;;;0.30;0.30;;;;;;;12.45;45.34;99059.38;4444355;32;32996;-79
2024/03/25 09:06:02;;;;;;;0.00;0.00;;;;;;;12.62;44.08;99058.31;4442997;32;32670;-80
2024/03/25 09:08:36;;;;;;;0.30;0.30;;;;;;;12.23;45.11;99059.88;4444267;32;33529;-79
2024/03/25 09:11:03;;;;;;;0.13;0.13;;;;;;;12.28;45.59;99074.50;4457575;32;33903;-79
2024/03/25 09:13:30;;;;;;;9.45;1.45;;;;;;;12.04;44.63;99068.94;4456230;32;32496;-79
2024/03/25 09:15:57;;;;;;;0.10;0.10;;;;;;;12.28;44.90;99055.13;4469351;32;34657;-79
2024/03/25 09:18:24;;;;;;;0.10;0.10;;;;;;;12.21;44.50;99064.44;4443732;32;31244;-79
2024/03/25 09:20:53;;;;;;;0.10;0.10;;;;;;;12.69;44.68;99062.28;4456070;32;34037;-79
2024/03/25 09:23:20;;;;;;;0.00;0.00;;;;;;;12.08;44.61;99061.69;4456461;32;33863;-80
2024/03/25 09:25:53;;;;;;;0.00;0.00;;;;;;;12.52;43.66;99061.53;4469111;32;33807;-79
2024/03/25 09:28:20;;;;;;;0.08;0.08;;;;;;;12.26;43.74;99052.59;4455475;32;33317;-79
2024/03/25 09:30:50;;;;;;;0.00;0.00;;;;;;;12.47;43.36;99053.03;4469328;32;32209;-79
2024/03/25 09:33:16;;;;;;;0.47;0.43;;;;;;;12.41;44.34;99058.72;4457382;32;33828;-79
2024/03/25 09:35:43;;;;;;;0.13;0.13;;;;;;;12.92;43.07;99058.16;4456186;32;33249;-79
2024/03/25 09:38:10;;;;;;;0.00;0.00;;;;;;;12.32;43.74;99048.72;4456274;32;32868;-79
2024/03/25 09:40:40;;;;;;;0.00;0.00;;;;;;;12.29;43.30;99059.47;4456983;32;32012;-79
2024/03/25 09:43:23;;;;;;;0.77;0.55;;;;;;;12.66;42.84;99054.50;4454895;32;34013;-79
2024/03/25 09:45:52;;;;;;;0.00;0.00;;;;;;;12.23;43.03;99065.16;4442917;32;35065;-79
2024/03/25 09:48:19;;;;;;;1.12;0.28;;;;;;;12.76;42.34;99063.56;4456073;32;33474;-79
2024/03/25 09:50:46;;;;;;;0.37;0.30;;;;;;;12.60;42.04;99052.28;4468857;32;33492;-79
2024/03/25 09:53:13;;;;;;;0.35;0.05;;;;;;;13.07;42.18;99052.69;4456077;31;32672;-79
2024/03/25 09:55:40;;;;;;;0.00;0.00;;;;;;;13.28;41.65;99055.72;4456261;32;32326;-79
2024/03/25 09:58:07;;;;;;;0.05;0.05;;;;;;;13.36;40.76;99063.19;4469040;32;33150;-79
2024/03/25 10:00:34;;;;;;;0.00;0.00;;;;;;;13.46;38.86;99047.50;4457142;32;36410;-79
2024/03/25 10:03:00;;;;;;;0.00;0.00;;;;;;;13.71;38.66;99052.00;4471240;32;34458;-79
2024/03/25 10:05:27;;;;;;;0.00;0.00;;;;;;;13.63;38.39;99051.69;4456788;32;32820;-80
2024/03/25 10:07:54;;;;;;;1.85;0.77;;;;;;;13.30;39.77;99047.69;4471468;32;33318;-80
2024/03/25 10:10:21;;;;;;;0.10;0.10;;;;;;;13.85;38.64;99046.59;4457707;32;34204;-79
2024/03/25 10:12:47;;;;;;;0.70;0.15;;;;;;;13.82;39.36;99057.44;4457821;32;34350;-79
2024/03/25 10:15:17;;;;;;;0.85;0.65;;;;;;;14.03;39.13;99047.97;4445090;32;33632;-79
2024/03/25 10:17:44;;;;;;;1.20;1.00;;;;;;;14.10;39.20;99048.41;4470889;32;33880;-80
2024/03/25 10:20:14;;;;;;;2.08;0.25;;;;;;;14.83;39.40;99039.66;4457949;32;33883;-79
2024/03/25 10:22:45;;;;;;;0.20;0.20;;;;;;;15.15;38.95;99039.09;4470981;32;33915;-80
2024/03/25 10:25:29;;;;;;;0.00;0.00;;;;;;;15.48;38.10;99038.38;4444326;32;35036;-79
2024/03/25 10:28:02;;;;;;;0.55;0.15;;;;;;;15.08;37.06;99026.22;4453390;32;32183;-80
2024/03/25 10:30:29;;;;;;;0.10;0.10;;;;;;;15.28;37.13;99032.72;4470142;32;32447;-79
2024/03/25 10:33:06;;;;;;;0.00;0.00;;;;;;;15.33;36.16;99027.03;4444506;32;34076;-80
2024/03/25 10:35:37;;;;;;;0.22;0.22;;;;;;;15.05;37.33;99039.78;4457832;32;32678;-79
2024/03/25 10:38:05;;;;;;;0.00;0.00;;;;;;;14.59;37.66;99040.47;4457770;32;32505;-80
2024/03/25 10:40:33;;;;;;;0.00;0.00;;;;;;;15.07;37.54;99035.16;4483000;32;34582;-79
2024/03/25 10:43:11;;;;;;;1.17;0.70;;;;;;;15.26;36.29;99023.16;4443703;32;35260;-80
2024/03/25 10:45:44;;;;;;;0.25;0.25;;;;;;;15.24;36.39;99027.72;4457672;32;33715;-80
2024/03/25 10:48:21;;;;;;;0.10;0.10;;;;;;;15.66;35.88;99022.81;4470521;32;33249;-79
2024/03/25 10:50:49;;;;;;;0.00;0.00;;;;;;;15.80;34.97;99022.59;4442544;32;32160;-80
2024/03/25 10:53:18;;;;;;;0.10;0.10;;;;;;;15.22;35.37;99021.69;4456929;32;34671;-80
2024/03/25 10:55:50;;;;;;;1.10;0.90;;;;;;;15.54;34.71;99019.25;4470343;32;32347;-79
2024/03/25 10:58:19;;;;;;;0.22;0.10;;;;;;;14.97;35.08;99018.22;4470676;32;33261;-80
2024/03/25 11:00:46;;;;;;;2.35;1.08;;;;;;;15.35;34.83;99018.00;4456570;32;33419;-79
2024/03/25 11:03:13;;;;;;;0.08;0.08;;;;;;;15.62;33.81;99025.69;4470630;32;34724;-79
2024/03/25 11:05:40;;;;;;;0.45;0.45;;;;;;;15.48;33.90;99027.72;4470413;32;33881;-80
2024/03/25 11:08:13;;;;;;;0.00;0.00;;;;;;;15.74;33.91;99028.41;4461159;32;31809;-79
2024/03/25 11:10:41;;;;;;;0.00;0.00;;;;;;;16.16;34.11;99008.22;4469675;32;33958;-80
2024/03/25 11:13:12;;;;;;;0.20;0.20;;;;;;;16.76;33.23;99006.97;4467808;32;34696;-79
2024/03/25 11:15:47;;;;;;;1.83;0.90;;;;;;;16.17;33.93;99019.72;4461843;32;35017;-80
2024/03/25 11:18:15;;;;;;;0.08;0.08;;;;;;;16.08;33.90;99019.47;4455912;32;33252;-80
2024/03/25 11:20:43;;;;;;;0.08;0.08;;;;;;;15.65;33.12;99013.13;4442227;32;34238;-79
2024/03/25 11:23:13;;;;;;;0.00;0.00;;;;;;;15.80;33.26;99006.62;4468171;32;34620;-80
2024/03/25 11:25:41;;;;;;;0.00;0.00;;;;;;;16.01;32.95;99001.44;4455470;32;34078;-80
2024/03/25 11:28:11;;;;;;;0.00;0.00;;;;;;;15.66;33.33;99015.66;4443404;32;33319;-80
2024/03/25 11:30:41;;;;;;;0.40;0.40;;;;;;;15.86;33.57;99006.16;4469695;32;33826;-80
2024/03/25 11:33:08;;;;;;;1.87;0.90;;;;;;;16.48;32.87;98996.81;4455182;32;34048;-80
2024/03/25 11:35:38;;;;;;;0.00;0.00;;;;;;;15.88;32.52;99004.22;4469717;32;33696;-80
2024/03/25 11:38:04;;;;;;;0.00;0.00;;;;;;;16.61;32.91;99002.81;4456456;32;32669;-79
2024/03/25 11:40:31;;;;;;;0.05;0.05;;;;;;;16.88;31.64;99010.44;4454103;32;33232;-80
2024/03/25 11:42:58;;;;;;;0.00;0.00;;;;;;;16.84;32.84;99009.81;4469135;32;32558;-80
2024/03/25 11:45:25;;;;;;;3.12;1.80;;;;;;;15.94;35.12;99019.69;4468235;32;34093;-80